sensor_id;sensor_type;location;lat;lon;timestamp;P1;durP1;ratioP1;P2;durP2;ratioP2
9848;SDS011;4963;51.444;6.528;2022-09-09T00:02:23;1.53;;;0.90;;
9848;SDS011;4963;51.444;6.528;2022-09-09T00:04:57;1.43;;;0.90;;
9848;SDS011;4963;51.444;6.528;2022-09-09T00:07:28;2.10;;;1.20;;
9848;SDS011;4963;51.444;6.528;2022-09-09T00:10:09;2.67;;;1.33;;
9848;SDS011;4963;51.444;6.528;2022-09-09T00:12:47;3.93;;;1.73;;
9848;SDS011;4963;51.444;6.528;2022-09-09T00:15:21;4.00;;;1.67;;
9848;SDS011;4963;51.444;6.528;2022-09-09T00:17:52;4.50;;;1.80;;
9848;SDS011;4963;51.444;6.528;2022-09-09T00:20:26;4.07;;;1.40;;
9848;SDS011;4963;51.444;6.528;2022-09-09T00:22:59;2.13;;;1.10;;
9848;SDS011;4963;51.444;6.528;2022-09-09T00:25:32;4.13;;;1.23;;
9848;SDS011;4963;51.444;6.528;2022-09-09T00:28:09;1.97;;;1.00;;
9848;SDS011;4963;51.444;6.528;2022-09-09T00:30:42;3.17;;;1.10;;
9848;SDS011;4963;51.444;6.528;2022-09-09T00:33:10;4.97;;;1.30;;
9848;SDS011;4963;51.444;6.528;2022-09-09T00:35:41;2.20;;;1.10;;
9848;SDS011;4963;51.444;6.528;2022-09-09T00:38:13;1.10;;;1.00;;
9848;SDS011;4963;51.444;6.528;2022-09-09T00:40:45;3.30;;;1.13;;
9848;SDS011;4963;51.444;6.528;2022-09-09T00:43:25;2.53;;;1.27;;
9848;SDS011;4963;51.444;6.528;2022-09-09T00:45:59;1.33;;;0.90;;
9848;SDS011;4963;51.444;6.528;2022-09-09T00:48:42;2.87;;;1.37;;
9848;SDS011;4963;51.444;6.528;2022-09-09T00:51:18;4.97;;;1.70;;
9848;SDS011;4963;51.444;6.528;2022-09-09T00:56:46;2.87;;;1.57;;
9848;SDS011;4963;51.444;6.528;2022-09-09T00:59:24;4.20;;;1.40;;
9848;SDS011;4963;51.444;6.528;2022-09-09T01:01:57;2.37;;;1.50;;
9848;SDS011;4963;51.444;6.528;2022-09-09T01:04:29;8.17;;;1.20;;
9848;SDS011;4963;51.444;6.528;2022-09-09T01:07:03;2.90;;;1.17;;
9848;SDS011;4963;51.444;6.528;2022-09-09T01:09:38;1.87;;;1.00;;
9848;SDS011;4963;51.444;6.528;2022-09-09T01:12:14;2.97;;;1.17;;
9848;SDS011;4963;51.444;6.528;2022-09-09T01:14:45;1.97;;;1.20;;
9848;SDS011;4963;51.444;6.528;2022-09-09T01:17:17;3.20;;;1.10;;
9848;SDS011;4963;51.444;6.528;2022-09-09T01:19:52;2.47;;;1.27;;
9848;SDS011;4963;51.444;6.528;2022-09-09T01:22:26;2.23;;;1.20;;
9848;SDS011;4963;51.444;6.528;2022-09-09T01:27:57;6.03;;;1.40;;
9848;SDS011;4963;51.444;6.528;2022-09-09T01:30:26;3.73;;;1.33;;
9848;SDS011;4963;51.444;6.528;2022-09-09T01:32:55;4.37;;;1.60;;
9848;SDS011;4963;51.444;6.528;2022-09-09T01:35:31;4.93;;;1.70;;
9848;SDS011;4963;51.444;6.528;2022-09-09T01:38:04;3.87;;;1.50;;
9848;SDS011;4963;51.444;6.528;2022-09-09T01:40:31;4.07;;;1.77;;
9848;SDS011;4963;51.444;6.528;2022-09-09T01:42:59;3.30;;;1.60;;
9848;SDS011;4963;51.444;6.528;2022-09-09T01:45:26;3.20;;;1.40;;
9848;SDS011;4963;51.444;6.528;2022-09-09T01:47:53;4.97;;;1.60;;
9848;SDS011;4963;51.444;6.528;2022-09-09T01:50:21;3.90;;;1.60;;
9848;SDS011;4963;51.444;6.528;2022-09-09T01:52:49;4.17;;;1.80;;
9848;SDS011;4963;51.444;6.528;2022-09-09T01:55:18;3.00;;;1.67;;
9848;SDS011;4963;51.444;6.528;2022-09-09T01:58:00;3.50;;;1.80;;
9848;SDS011;4963;51.444;6.528;2022-09-09T02:00:36;2.90;;;1.87;;
9848;SDS011;4963;51.444;6.528;2022-09-09T02:03:13;5.63;;;2.13;;
9848;SDS011;4963;51.444;6.528;2022-09-09T02:05:49;3.37;;;2.07;;
9848;SDS011;4963;51.444;6.528;2022-09-09T02:08:23;5.40;;;1.87;;
9848;SDS011;4963;51.444;6.528;2022-09-09T02:10:53;3.97;;;1.87;;
9848;SDS011;4963;51.444;6.528;2022-09-09T02:13:26;4.13;;;2.20;;
9848;SDS011;4963;51.444;6.528;2022-09-09T02:15:55;3.13;;;1.77;;
9848;SDS011;4963;51.444;6.528;2022-09-09T02:18:27;2.87;;;1.60;;
9848;SDS011;4963;51.444;6.528;2022-09-09T02:20:57;2.27;;;1.67;;
9848;SDS011;4963;51.444;6.528;2022-09-09T02:23:25;2.80;;;1.90;;
9848;SDS011;4963;51.444;6.528;2022-09-09T02:25:53;4.50;;;2.00;;
9848;SDS011;4963;51.444;6.528;2022-09-09T02:28:26;2.63;;;1.80;;
9848;SDS011;4963;51.444;6.528;2022-09-09T02:30:56;4.23;;;1.93;;
9848;SDS011;4963;51.444;6.528;2022-09-09T02:33:24;2.67;;;1.63;;
9848;SDS011;4963;51.444;6.528;2022-09-09T02:35:53;3.67;;;2.20;;
9848;SDS011;4963;51.444;6.528;2022-09-09T02:38:27;3.57;;;2.03;;
9848;SDS011;4963;51.444;6.528;2022-09-09T02:40:57;3.90;;;1.60;;
9848;SDS011;4963;51.444;6.528;2022-09-09T02:43:25;4.80;;;1.90;;
9848;SDS011;4963;51.444;6.528;2022-09-09T02:45:57;5.17;;;2.07;;
9848;SDS011;4963;51.444;6.528;2022-09-09T02:48:32;4.13;;;1.63;;
9848;SDS011;4963;51.444;6.528;2022-09-09T02:51:10;3.27;;;1.50;;
9848;SDS011;4963;51.444;6.528;2022-09-09T02:53:46;2.97;;;1.47;;
9848;SDS011;4963;51.444;6.528;2022-09-09T02:56:18;3.13;;;1.60;;
9848;SDS011;4963;51.444;6.528;2022-09-09T02:58:49;5.00;;;1.70;;
9848;SDS011;4963;51.444;6.528;2022-09-09T03:01:17;1.90;;;1.47;;
9848;SDS011;4963;51.444;6.528;2022-09-09T03:03:44;2.97;;;1.40;;
9848;SDS011;4963;51.444;6.528;2022-09-09T03:06:11;3.63;;;1.70;;
9848;SDS011;4963;51.444;6.528;2022-09-09T03:08:39;5.23;;;1.47;;
9848;SDS011;4963;51.444;6.528;2022-09-09T03:11:07;4.53;;;1.50;;
9848;SDS011;4963;51.444;6.528;2022-09-09T03:13:34;5.53;;;1.30;;
9848;SDS011;4963;51.444;6.528;2022-09-09T03:16:04;4.73;;;1.63;;
9848;SDS011;4963;51.444;6.528;2022-09-09T03:18:31;4.73;;;1.30;;
9848;SDS011;4963;51.444;6.528;2022-09-09T03:20:59;3.73;;;1.33;;
9848;SDS011;4963;51.444;6.528;2022-09-09T03:23:26;4.77;;;1.70;;
9848;SDS011;4963;51.444;6.528;2022-09-09T03:25:53;4.10;;;1.27;;
9848;SDS011;4963;51.444;6.528;2022-09-09T03:28:22;5.07;;;1.90;;
9848;SDS011;4963;51.444;6.528;2022-09-09T03:30:57;2.63;;;1.30;;
9848;SDS011;4963;51.444;6.528;2022-09-09T03:33:26;2.53;;;1.50;;
9848;SDS011;4963;51.444;6.528;2022-09-09T03:35:54;9.10;;;1.67;;
9848;SDS011;4963;51.444;6.528;2022-09-09T03:38:22;4.80;;;1.60;;
9848;SDS011;4963;51.444;6.528;2022-09-09T03:40:49;3.43;;;1.47;;
9848;SDS011;4963;51.444;6.528;2022-09-09T03:43:16;2.10;;;1.30;;
9848;SDS011;4963;51.444;6.528;2022-09-09T03:45:45;4.33;;;1.83;;
9848;SDS011;4963;51.444;6.528;2022-09-09T03:48:12;4.53;;;1.87;;
9848;SDS011;4963;51.444;6.528;2022-09-09T03:50:44;4.87;;;1.70;;
9848;SDS011;4963;51.444;6.528;2022-09-09T03:53:12;3.60;;;1.50;;
9848;SDS011;4963;51.444;6.528;2022-09-09T03:55:43;4.93;;;1.80;;
9848;SDS011;4963;51.444;6.528;2022-09-09T03:58:10;2.90;;;1.63;;
9848;SDS011;4963;51.444;6.528;2022-09-09T04:00:38;2.93;;;1.50;;
9848;SDS011;4963;51.444;6.528;2022-09-09T04:03:07;4.10;;;1.57;;
9848;SDS011;4963;51.444;6.528;2022-09-09T04:05:34;6.07;;;1.77;;
9848;SDS011;4963;51.444;6.528;2022-09-09T04:08:06;4.97;;;1.73;;
9848;SDS011;4963;51.444;6.528;2022-09-09T04:10:33;3.23;;;1.40;;
9848;SDS011;4963;51.444;6.528;2022-09-09T04:13:02;6.97;;;1.93;;
9848;SDS011;4963;51.444;6.528;2022-09-09T04:15:29;4.57;;;1.67;;
9848;SDS011;4963;51.444;6.528;2022-09-09T04:17:56;4.13;;;1.80;;
9848;SDS011;4963;51.444;6.528;2022-09-09T04:20:23;3.57;;;1.47;;
9848;SDS011;4963;51.444;6.528;2022-09-09T04:22:50;3.83;;;1.67;;
9848;SDS011;4963;51.444;6.528;2022-09-09T04:25:18;2.63;;;1.40;;
9848;SDS011;4963;51.444;6.528;2022-09-09T04:27:45;3.87;;;1.50;;
9848;SDS011;4963;51.444;6.528;2022-09-09T04:30:12;6.17;;;1.77;;
9848;SDS011;4963;51.444;6.528;2022-09-09T04:32:39;4.70;;;1.70;;
9848;SDS011;4963;51.444;6.528;2022-09-09T04:35:06;7.50;;;2.13;;
9848;SDS011;4963;51.444;6.528;2022-09-09T04:37:33;3.23;;;1.60;;
9848;SDS011;4963;51.444;6.528;2022-09-09T04:40:00;3.37;;;1.80;;
9848;SDS011;4963;51.444;6.528;2022-09-09T04:42:29;3.70;;;1.50;;
9848;SDS011;4963;51.444;6.528;2022-09-09T04:44:55;2.90;;;1.70;;
9848;SDS011;4963;51.444;6.528;2022-09-09T04:47:22;4.03;;;1.77;;
9848;SDS011;4963;51.444;6.528;2022-09-09T04:49:49;3.53;;;1.50;;
9848;SDS011;4963;51.444;6.528;2022-09-09T04:52:17;4.10;;;1.80;;
9848;SDS011;4963;51.444;6.528;2022-09-09T04:54:43;5.23;;;1.90;;
9848;SDS011;4963;51.444;6.528;2022-09-09T04:57:11;5.50;;;1.60;;
9848;SDS011;4963;51.444;6.528;2022-09-09T04:59:39;7.17;;;1.90;;
9848;SDS011;4963;51.444;6.528;2022-09-09T05:02:06;7.03;;;2.10;;
9848;SDS011;4963;51.444;6.528;2022-09-09T05:04:32;8.40;;;2.07;;
9848;SDS011;4963;51.444;6.528;2022-09-09T05:06:59;6.33;;;2.33;;
9848;SDS011;4963;51.444;6.528;2022-09-09T05:09:26;4.47;;;1.90;;
9848;SDS011;4963;51.444;6.528;2022-09-09T05:11:53;6.17;;;1.87;;
9848;SDS011;4963;51.444;6.528;2022-09-09T05:14:20;4.37;;;2.10;;
9848;SDS011;4963;51.444;6.528;2022-09-09T05:16:48;7.67;;;2.43;;
9848;SDS011;4963;51.444;6.528;2022-09-09T05:19:16;3.97;;;1.80;;
9848;SDS011;4963;51.444;6.528;2022-09-09T05:21:44;4.63;;;2.17;;
9848;SDS011;4963;51.444;6.528;2022-09-09T05:24:11;4.47;;;2.30;;
9848;SDS011;4963;51.444;6.528;2022-09-09T05:26:38;4.43;;;2.20;;
9848;SDS011;4963;51.444;6.528;2022-09-09T05:29:05;6.27;;;2.10;;
9848;SDS011;4963;51.444;6.528;2022-09-09T05:31:33;7.20;;;1.90;;
9848;SDS011;4963;51.444;6.528;2022-09-09T05:34:01;8.20;;;1.93;;
9848;SDS011;4963;51.444;6.528;2022-09-09T05:36:28;5.40;;;2.27;;
9848;SDS011;4963;51.444;6.528;2022-09-09T05:38:55;10.30;;;2.20;;
9848;SDS011;4963;51.444;6.528;2022-09-09T05:41:22;8.10;;;1.87;;
9848;SDS011;4963;51.444;6.528;2022-09-09T05:43:49;4.93;;;1.90;;
9848;SDS011;4963;51.444;6.528;2022-09-09T05:46:17;9.37;;;2.33;;
9848;SDS011;4963;51.444;6.528;2022-09-09T05:48:46;7.03;;;2.23;;
9848;SDS011;4963;51.444;6.528;2022-09-09T05:51:19;8.50;;;3.60;;
9848;SDS011;4963;51.444;6.528;2022-09-09T05:53:47;10.27;;;3.30;;
9848;SDS011;4963;51.444;6.528;2022-09-09T05:56:16;6.50;;;3.03;;
9848;SDS011;4963;51.444;6.528;2022-09-09T05:58:44;7.60;;;3.00;;
9848;SDS011;4963;51.444;6.528;2022-09-09T06:01:12;7.07;;;3.20;;
9848;SDS011;4963;51.444;6.528;2022-09-09T06:03:41;6.27;;;3.23;;
9848;SDS011;4963;51.444;6.528;2022-09-09T06:06:10;10.53;;;2.70;;
9848;SDS011;4963;51.444;6.528;2022-09-09T06:08:40;6.70;;;2.80;;
9848;SDS011;4963;51.444;6.528;2022-09-09T06:11:10;9.67;;;3.70;;
9848;SDS011;4963;51.444;6.528;2022-09-09T06:13:39;8.17;;;3.20;;
9848;SDS011;4963;51.444;6.528;2022-09-09T06:16:06;7.33;;;3.47;;
9848;SDS011;4963;51.444;6.528;2022-09-09T06:18:34;9.60;;;2.90;;
9848;SDS011;4963;51.444;6.528;2022-09-09T06:21:01;7.37;;;3.37;;
9848;SDS011;4963;51.444;6.528;2022-09-09T06:23:31;7.47;;;3.20;;
9848;SDS011;4963;51.444;6.528;2022-09-09T06:26:05;7.13;;;2.87;;
9848;SDS011;4963;51.444;6.528;2022-09-09T06:28:34;5.37;;;2.40;;
9848;SDS011;4963;51.444;6.528;2022-09-09T06:31:02;8.30;;;2.70;;
9848;SDS011;4963;51.444;6.528;2022-09-09T06:33:30;7.70;;;2.97;;
9848;SDS011;4963;51.444;6.528;2022-09-09T06:35:59;5.93;;;2.57;;
9848;SDS011;4963;51.444;6.528;2022-09-09T06:38:27;7.70;;;2.40;;
9848;SDS011;4963;51.444;6.528;2022-09-09T06:40:54;8.93;;;2.80;;
9848;SDS011;4963;51.444;6.528;2022-09-09T06:43:24;5.60;;;1.90;;
9848;SDS011;4963;51.444;6.528;2022-09-09T06:45:55;7.13;;;2.63;;
9848;SDS011;4963;51.444;6.528;2022-09-09T06:48:22;5.57;;;2.50;;
9848;SDS011;4963;51.444;6.528;2022-09-09T06:50:50;6.07;;;2.27;;
9848;SDS011;4963;51.444;6.528;2022-09-09T06:53:19;7.93;;;2.53;;
9848;SDS011;4963;51.444;6.528;2022-09-09T06:55:46;5.93;;;2.10;;
9848;SDS011;4963;51.444;6.528;2022-09-09T06:58:13;6.97;;;2.50;;
9848;SDS011;4963;51.444;6.528;2022-09-09T07:00:41;8.02;;;2.10;;
9848;SDS011;4963;51.444;6.528;2022-09-09T07:03:09;6.80;;;2.20;;
9848;SDS011;4963;51.444;6.528;2022-09-09T07:05:36;9.02;;;2.40;;
9848;SDS011;4963;51.444;6.528;2022-09-09T07:08:03;5.85;;;1.60;;
9848;SDS011;4963;51.444;6.528;2022-09-09T07:10:30;9.27;;;2.10;;
9848;SDS011;4963;51.444;6.528;2022-09-09T07:12:59;5.40;;;1.80;;
9848;SDS011;4963;51.444;6.528;2022-09-09T07:15:26;4.82;;;1.73;;
9848;SDS011;4963;51.444;6.528;2022-09-09T07:17:54;5.10;;;1.80;;
9848;SDS011;4963;51.444;6.528;2022-09-09T07:20:21;6.13;;;2.00;;
9848;SDS011;4963;51.444;6.528;2022-09-09T07:22:48;4.45;;;1.60;;
9848;SDS011;4963;51.444;6.528;2022-09-09T07:25:15;7.65;;;2.03;;
9848;SDS011;4963;51.444;6.528;2022-09-09T07:27:43;6.40;;;1.63;;
9848;SDS011;4963;51.444;6.528;2022-09-09T07:30:10;6.63;;;2.17;;
9848;SDS011;4963;51.444;6.528;2022-09-09T07:32:37;6.32;;;2.28;;
9848;SDS011;4963;51.444;6.528;2022-09-09T07:35:06;6.97;;;1.77;;
9848;SDS011;4963;51.444;6.528;2022-09-09T07:37:35;4.97;;;1.98;;
9848;SDS011;4963;51.444;6.528;2022-09-09T07:40:02;5.65;;;2.10;;
9848;SDS011;4963;51.444;6.528;2022-09-09T07:42:30;8.73;;;2.00;;
9848;SDS011;4963;51.444;6.528;2022-09-09T07:44:58;4.18;;;1.90;;
9848;SDS011;4963;51.444;6.528;2022-09-09T07:47:25;7.22;;;1.83;;
9848;SDS011;4963;51.444;6.528;2022-09-09T07:49:52;6.40;;;2.15;;
9848;SDS011;4963;51.444;6.528;2022-09-09T07:52:20;5.28;;;2.10;;
9848;SDS011;4963;51.444;6.528;2022-09-09T07:54:46;5.78;;;1.95;;
9848;SDS011;4963;51.444;6.528;2022-09-09T07:57:13;3.65;;;1.58;;
9848;SDS011;4963;51.444;6.528;2022-09-09T07:59:40;5.88;;;2.00;;
9848;SDS011;4963;51.444;6.528;2022-09-09T08:02:08;6.57;;;2.15;;
9848;SDS011;4963;51.444;6.528;2022-09-09T08:04:36;7.88;;;2.47;;
9848;SDS011;4963;51.444;6.528;2022-09-09T08:07:02;6.50;;;1.80;;
9848;SDS011;4963;51.444;6.528;2022-09-09T08:09:31;5.97;;;1.60;;
9848;SDS011;4963;51.444;6.528;2022-09-09T08:11:58;5.82;;;2.03;;
9848;SDS011;4963;51.444;6.528;2022-09-09T08:14:26;4.28;;;1.52;;
9848;SDS011;4963;51.444;6.528;2022-09-09T08:16:53;6.70;;;2.03;;
9848;SDS011;4963;51.444;6.528;2022-09-09T08:19:20;8.30;;;2.25;;
9848;SDS011;4963;51.444;6.528;2022-09-09T08:21:47;5.90;;;1.98;;
9848;SDS011;4963;51.444;6.528;2022-09-09T08:24:14;6.30;;;2.08;;
9848;SDS011;4963;51.444;6.528;2022-09-09T08:26:42;6.35;;;2.17;;
9848;SDS011;4963;51.444;6.528;2022-09-09T08:29:11;5.75;;;1.98;;
9848;SDS011;4963;51.444;6.528;2022-09-09T08:31:39;5.35;;;1.77;;
9848;SDS011;4963;51.444;6.528;2022-09-09T08:34:08;12.70;;;2.22;;
9848;SDS011;4963;51.444;6.528;2022-09-09T08:36:37;5.25;;;1.88;;
9848;SDS011;4963;51.444;6.528;2022-09-09T08:39:06;9.82;;;2.40;;
9848;SDS011;4963;51.444;6.528;2022-09-09T08:41:39;6.22;;;2.25;;
9848;SDS011;4963;51.444;6.528;2022-09-09T08:44:21;5.10;;;1.80;;
9848;SDS011;4963;51.444;6.528;2022-09-09T08:46:57;6.93;;;2.42;;
9848;SDS011;4963;51.444;6.528;2022-09-09T08:52:21;7.53;;;2.33;;
9848;SDS011;4963;51.444;6.528;2022-09-09T08:54:52;8.55;;;2.00;;
9848;SDS011;4963;51.444;6.528;2022-09-09T08:57:25;8.20;;;1.52;;
9848;SDS011;4963;51.444;6.528;2022-09-09T08:59:54;7.13;;;1.90;;
9848;SDS011;4963;51.444;6.528;2022-09-09T09:02:23;8.40;;;2.17;;
9848;SDS011;4963;51.444;6.528;2022-09-09T09:04:59;4.53;;;1.73;;
9848;SDS011;4963;51.444;6.528;2022-09-09T09:07:39;9.82;;;2.22;;
9848;SDS011;4963;51.444;6.528;2022-09-09T09:10:18;5.43;;;2.00;;
9848;SDS011;4963;51.444;6.528;2022-09-09T09:12:56;6.05;;;1.95;;
9848;SDS011;4963;51.444;6.528;2022-09-09T09:15:27;4.05;;;1.45;;
9848;SDS011;4963;51.444;6.528;2022-09-09T09:17:59;6.57;;;1.90;;
9848;SDS011;4963;51.444;6.528;2022-09-09T09:20:27;4.68;;;2.35;;
9848;SDS011;4963;51.444;6.528;2022-09-09T09:23:02;3.58;;;1.45;;
9848;SDS011;4963;51.444;6.528;2022-09-09T09:25:32;3.88;;;1.50;;
9848;SDS011;4963;51.444;6.528;2022-09-09T09:28:10;5.38;;;1.52;;
9848;SDS011;4963;51.444;6.528;2022-09-09T09:30:42;3.30;;;1.42;;
9848;SDS011;4963;51.444;6.528;2022-09-09T09:33:15;4.10;;;1.48;;
9848;SDS011;4963;51.444;6.528;2022-09-09T09:35:47;4.15;;;1.42;;
9848;SDS011;4963;51.444;6.528;2022-09-09T09:38:16;3.03;;;1.58;;
9848;SDS011;4963;51.444;6.528;2022-09-09T09:40:48;4.25;;;1.45;;
9848;SDS011;4963;51.444;6.528;2022-09-09T09:43:20;4.63;;;1.88;;
9848;SDS011;4963;51.444;6.528;2022-09-09T09:45:50;7.38;;;1.83;;
9848;SDS011;4963;51.444;6.528;2022-09-09T09:48:17;4.95;;;1.90;;
9848;SDS011;4963;51.444;6.528;2022-09-09T09:50:47;4.00;;;1.70;;
9848;SDS011;4963;51.444;6.528;2022-09-09T09:53:17;5.85;;;2.30;;
9848;SDS011;4963;51.444;6.528;2022-09-09T09:55:49;8.95;;;1.75;;
9848;SDS011;4963;51.444;6.528;2022-09-09T09:58:22;5.80;;;2.08;;
9848;SDS011;4963;51.444;6.528;2022-09-09T10:00:51;5.93;;;1.42;;
9848;SDS011;4963;51.444;6.528;2022-09-09T10:03:26;4.32;;;2.13;;
9848;SDS011;4963;51.444;6.528;2022-09-09T10:05:54;5.28;;;1.98;;
9848;SDS011;4963;51.444;6.528;2022-09-09T10:08:22;2.33;;;1.40;;
9848;SDS011;4963;51.444;6.528;2022-09-09T10:10:52;4.30;;;1.75;;
9848;SDS011;4963;51.444;6.528;2022-09-09T10:13:35;3.17;;;1.45;;
9848;SDS011;4963;51.444;6.528;2022-09-09T10:16:13;6.68;;;2.00;;
9848;SDS011;4963;51.444;6.528;2022-09-09T10:18:56;4.40;;;1.35;;
9848;SDS011;4963;51.444;6.528;2022-09-09T10:21:32;3.88;;;1.70;;
9848;SDS011;4963;51.444;6.528;2022-09-09T10:24:37;4.13;;;1.70;;
9848;SDS011;4963;51.444;6.528;2022-09-09T10:27:19;6.05;;;1.73;;
9848;SDS011;4963;51.444;6.528;2022-09-09T10:29:56;5.55;;;1.50;;
9848;SDS011;4963;51.444;6.528;2022-09-09T10:32:36;5.75;;;1.63;;
9848;SDS011;4963;51.444;6.528;2022-09-09T10:35:10;6.43;;;1.80;;
9848;SDS011;4963;51.444;6.528;2022-09-09T10:37:47;5.60;;;1.65;;
9848;SDS011;4963;51.444;6.528;2022-09-09T10:40:31;3.25;;;1.17;;
9848;SDS011;4963;51.444;6.528;2022-09-09T10:43:02;4.63;;;1.75;;
9848;SDS011;4963;51.444;6.528;2022-09-09T10:45:43;4.18;;;1.45;;
9848;SDS011;4963;51.444;6.528;2022-09-09T10:51:15;7.68;;;1.90;;
9848;SDS011;4963;51.444;6.528;2022-09-09T10:53:52;4.57;;;1.30;;
9848;SDS011;4963;51.444;6.528;2022-09-09T10:56:28;7.57;;;1.92;;
9848;SDS011;4963;51.444;6.528;2022-09-09T10:58:57;5.07;;;1.33;;
9848;SDS011;4963;51.444;6.528;2022-09-09T11:01:30;5.20;;;1.92;;
9848;SDS011;4963;51.444;6.528;2022-09-09T11:04:03;4.30;;;1.65;;
9848;SDS011;4963;51.444;6.528;2022-09-09T11:06:37;3.08;;;1.15;;
9848;SDS011;4963;51.444;6.528;2022-09-09T11:09:08;5.90;;;1.55;;
9848;SDS011;4963;51.444;6.528;2022-09-09T11:11:43;2.50;;;1.30;;
9848;SDS011;4963;51.444;6.528;2022-09-09T11:14:18;4.55;;;1.35;;
9848;SDS011;4963;51.444;6.528;2022-09-09T11:16:52;3.20;;;1.55;;
9848;SDS011;4963;51.444;6.528;2022-09-09T11:19:24;3.35;;;1.42;;
9848;SDS011;4963;51.444;6.528;2022-09-09T11:21:54;5.60;;;1.58;;
9848;SDS011;4963;51.444;6.528;2022-09-09T11:24:23;3.47;;;2.00;;
9848;SDS011;4963;51.444;6.528;2022-09-09T11:26:55;6.03;;;1.48;;
9848;SDS011;4963;51.444;6.528;2022-09-09T11:29:36;6.30;;;1.67;;
9848;SDS011;4963;51.444;6.528;2022-09-09T11:32:22;6.13;;;1.70;;
9848;SDS011;4963;51.444;6.528;2022-09-09T11:35:01;2.92;;;1.38;;
9848;SDS011;4963;51.444;6.528;2022-09-09T11:37:43;6.13;;;1.77;;
9848;SDS011;4963;51.444;6.528;2022-09-09T11:40:26;4.82;;;2.00;;
9848;SDS011;4963;51.444;6.528;2022-09-09T11:43:02;3.22;;;1.30;;
9848;SDS011;4963;51.444;6.528;2022-09-09T11:45:31;4.18;;;1.30;;
9848;SDS011;4963;51.444;6.528;2022-09-09T11:48:03;4.05;;;1.48;;
9848;SDS011;4963;51.444;6.528;2022-09-09T11:50:35;3.85;;;1.35;;
9848;SDS011;4963;51.444;6.528;2022-09-09T11:53:04;3.50;;;1.23;;
9848;SDS011;4963;51.444;6.528;2022-09-09T11:55:45;4.65;;;1.17;;
9848;SDS011;4963;51.444;6.528;2022-09-09T11:58:15;3.30;;;1.20;;
9848;SDS011;4963;51.444;6.528;2022-09-09T12:00:44;3.53;;;1.63;;
9848;SDS011;4963;51.444;6.528;2022-09-09T12:05:59;6.07;;;1.38;;
9848;SDS011;4963;51.444;6.528;2022-09-09T12:08:35;1.98;;;1.00;;
9848;SDS011;4963;51.444;6.528;2022-09-09T12:11:03;2.60;;;1.20;;
9848;SDS011;4963;51.444;6.528;2022-09-09T12:13:30;4.18;;;1.30;;
9848;SDS011;4963;51.444;6.528;2022-09-09T12:15:58;3.35;;;1.10;;
9848;SDS011;4963;51.444;6.528;2022-09-09T12:18:33;1.58;;;0.90;;
9848;SDS011;4963;51.444;6.528;2022-09-09T12:21:03;5.55;;;1.50;;
9848;SDS011;4963;51.444;6.528;2022-09-09T12:23:39;2.20;;;1.10;;
9848;SDS011;4963;51.444;6.528;2022-09-09T12:26:16;2.35;;;1.20;;
9848;SDS011;4963;51.444;6.528;2022-09-09T12:28:55;1.35;;;0.80;;
9848;SDS011;4963;51.444;6.528;2022-09-09T12:31:31;3.00;;;1.48;;
9848;SDS011;4963;51.444;6.528;2022-09-09T12:34:08;3.78;;;1.50;;
9848;SDS011;4963;51.444;6.528;2022-09-09T12:36:37;4.45;;;1.40;;
9848;SDS011;4963;51.444;6.528;2022-09-09T12:39:09;4.35;;;1.30;;
9848;SDS011;4963;51.444;6.528;2022-09-09T12:41:50;3.15;;;1.25;;
9848;SDS011;4963;51.444;6.528;2022-09-09T12:44:21;3.60;;;1.98;;
9848;SDS011;4963;51.444;6.528;2022-09-09T12:46:48;4.30;;;1.42;;
9848;SDS011;4963;51.444;6.528;2022-09-09T12:49:28;3.08;;;1.30;;
9848;SDS011;4963;51.444;6.528;2022-09-09T12:51:59;4.13;;;1.40;;
9848;SDS011;4963;51.444;6.528;2022-09-09T12:54:31;2.72;;;1.20;;
9848;SDS011;4963;51.444;6.528;2022-09-09T12:57:01;6.25;;;1.95;;
9848;SDS011;4963;51.444;6.528;2022-09-09T12:59:35;4.18;;;1.70;;
9848;SDS011;4963;51.444;6.528;2022-09-09T13:02:11;4.95;;;1.45;;
9848;SDS011;4963;51.444;6.528;2022-09-09T13:04:48;3.95;;;1.30;;
9848;SDS011;4963;51.444;6.528;2022-09-09T13:07:17;5.63;;;1.80;;
9848;SDS011;4963;51.444;6.528;2022-09-09T13:09:44;4.43;;;1.52;;
9848;SDS011;4963;51.444;6.528;2022-09-09T13:12:13;4.50;;;1.48;;
9848;SDS011;4963;51.444;6.528;2022-09-09T13:14:43;3.88;;;1.90;;
9848;SDS011;4963;51.444;6.528;2022-09-09T13:17:15;5.32;;;1.63;;
9848;SDS011;4963;51.444;6.528;2022-09-09T13:19:45;2.78;;;1.42;;
9848;SDS011;4963;51.444;6.528;2022-09-09T13:22:19;3.35;;;1.50;;
9848;SDS011;4963;51.444;6.528;2022-09-09T13:24:58;4.97;;;1.77;;
9848;SDS011;4963;51.444;6.528;2022-09-09T13:27:31;5.88;;;1.80;;
9848;SDS011;4963;51.444;6.528;2022-09-09T13:29:58;3.95;;;1.67;;
9848;SDS011;4963;51.444;6.528;2022-09-09T13:32:27;3.22;;;1.50;;
9848;SDS011;4963;51.444;6.528;2022-09-09T13:34:58;5.10;;;1.50;;
9848;SDS011;4963;51.444;6.528;2022-09-09T13:37:27;4.53;;;1.63;;
9848;SDS011;4963;51.444;6.528;2022-09-09T13:39:58;5.30;;;1.80;;
9848;SDS011;4963;51.444;6.528;2022-09-09T13:42:26;3.55;;;1.38;;
9848;SDS011;4963;51.444;6.528;2022-09-09T13:44:54;2.28;;;1.23;;
9848;SDS011;4963;51.444;6.528;2022-09-09T13:47:26;4.05;;;1.25;;
9848;SDS011;4963;51.444;6.528;2022-09-09T13:49:57;3.88;;;1.27;;
9848;SDS011;4963;51.444;6.528;2022-09-09T13:52:24;2.85;;;1.30;;
9848;SDS011;4963;51.444;6.528;2022-09-09T13:54:55;5.78;;;1.98;;
9848;SDS011;4963;51.444;6.528;2022-09-09T13:57:24;4.90;;;1.63;;
9848;SDS011;4963;51.444;6.528;2022-09-09T13:59:52;1.30;;;0.90;;
9848;SDS011;4963;51.444;6.528;2022-09-09T14:02:21;4.25;;;1.08;;
9848;SDS011;4963;51.444;6.528;2022-09-09T14:04:49;2.42;;;1.10;;
9848;SDS011;4963;51.444;6.528;2022-09-09T14:07:21;3.42;;;1.30;;
9848;SDS011;4963;51.444;6.528;2022-09-09T14:09:48;3.33;;;1.08;;
9848;SDS011;4963;51.444;6.528;2022-09-09T14:12:16;5.72;;;1.33;;
9848;SDS011;4963;51.444;6.528;2022-09-09T14:14:43;8.07;;;2.42;;
9848;SDS011;4963;51.444;6.528;2022-09-09T14:17:10;5.28;;;1.75;;
9848;SDS011;4963;51.444;6.528;2022-09-09T14:19:37;5.57;;;1.67;;
9848;SDS011;4963;51.444;6.528;2022-09-09T14:22:04;4.47;;;1.52;;
9848;SDS011;4963;51.444;6.528;2022-09-09T14:24:32;2.92;;;1.60;;
9848;SDS011;4963;51.444;6.528;2022-09-09T14:26:59;4.10;;;1.42;;
9848;SDS011;4963;51.444;6.528;2022-09-09T14:29:26;2.88;;;1.10;;
9848;SDS011;4963;51.444;6.528;2022-09-09T14:31:52;2.95;;;1.25;;
9848;SDS011;4963;51.444;6.528;2022-09-09T14:34:19;2.67;;;1.37;;
9848;SDS011;4963;51.444;6.528;2022-09-09T14:36:46;4.05;;;1.40;;
9848;SDS011;4963;51.444;6.528;2022-09-09T14:39:13;2.28;;;1.05;;
9848;SDS011;4963;51.444;6.528;2022-09-09T14:41:41;2.47;;;1.10;;
9848;SDS011;4963;51.444;6.528;2022-09-09T14:44:08;3.73;;;1.20;;
9848;SDS011;4963;51.444;6.528;2022-09-09T14:46:35;3.27;;;1.30;;
9848;SDS011;4963;51.444;6.528;2022-09-09T14:49:01;2.57;;;1.20;;
9848;SDS011;4963;51.444;6.528;2022-09-09T14:51:28;3.10;;;1.30;;
9848;SDS011;4963;51.444;6.528;2022-09-09T14:53:56;4.07;;;1.20;;
9848;SDS011;4963;51.444;6.528;2022-09-09T14:56:25;4.50;;;1.67;;
9848;SDS011;4963;51.444;6.528;2022-09-09T14:58:56;2.50;;;1.53;;
9848;SDS011;4963;51.444;6.528;2022-09-09T15:01:25;2.77;;;1.27;;
9848;SDS011;4963;51.444;6.528;2022-09-09T15:03:54;2.83;;;1.50;;
9848;SDS011;4963;51.444;6.528;2022-09-09T15:06:23;3.00;;;1.50;;
9848;SDS011;4963;51.444;6.528;2022-09-09T15:08:52;4.30;;;1.60;;
9848;SDS011;4963;51.444;6.528;2022-09-09T15:11:21;3.20;;;1.30;;
9848;SDS011;4963;51.444;6.528;2022-09-09T15:13:50;4.80;;;1.83;;
9848;SDS011;4963;51.444;6.528;2022-09-09T15:16:19;3.60;;;1.50;;
9848;SDS011;4963;51.444;6.528;2022-09-09T15:18:50;1.97;;;1.20;;
9848;SDS011;4963;51.444;6.528;2022-09-09T15:21:19;3.35;;;1.08;;
9848;SDS011;4963;51.444;6.528;2022-09-09T15:23:48;2.67;;;1.33;;
9848;SDS011;4963;51.444;6.528;2022-09-09T15:26:15;2.43;;;1.13;;
9848;SDS011;4963;51.444;6.528;2022-09-09T15:28:42;4.70;;;1.67;;
9848;SDS011;4963;51.444;6.528;2022-09-09T15:31:12;3.17;;;1.27;;
9848;SDS011;4963;51.444;6.528;2022-09-09T15:33:46;1.90;;;1.10;;
9848;SDS011;4963;51.444;6.528;2022-09-09T15:36:15;3.15;;;1.40;;
9848;SDS011;4963;51.444;6.528;2022-09-09T15:38:44;2.23;;;1.37;;
9848;SDS011;4963;51.444;6.528;2022-09-09T15:41:11;3.43;;;1.53;;
9848;SDS011;4963;51.444;6.528;2022-09-09T15:43:38;1.10;;;1.00;;
9848;SDS011;4963;51.444;6.528;2022-09-09T15:46:20;2.23;;;1.20;;
9848;SDS011;4963;51.444;6.528;2022-09-09T15:48:54;3.13;;;1.50;;
9848;SDS011;4963;51.444;6.528;2022-09-09T15:51:23;2.30;;;1.33;;